createdAt,value
2017-11-22T00:00:15.346Z,6.20
2017-11-22T00:02:42.845Z,10.83
2017-11-22T00:05:10.367Z,6.13
2017-11-22T00:07:37.923Z,5.93
2017-11-22T00:10:05.385Z,6.93
2017-11-22T00:12:33.987Z,8.57
2017-11-22T00:15:01.463Z,18.63
2017-11-22T00:17:28.961Z,8.97
2017-11-22T00:19:56.441Z,6.30
2017-11-22T00:22:23.927Z,5.60
2017-11-22T00:24:52.319Z,6.90
2017-11-22T00:27:19.813Z,6.10
2017-11-22T00:29:47.315Z,10.40
2017-11-22T00:32:15.901Z,8.90
2017-11-22T00:34:43.368Z,13.13
2017-11-22T00:37:10.869Z,9.57
2017-11-22T00:39:38.306Z,8.23
2017-11-22T00:42:05.789Z,7.83
2017-11-22T00:44:34.108Z,5.33
2017-11-22T00:47:01.575Z,7.10
2017-11-22T00:49:29.047Z,6.63
2017-11-22T00:51:56.554Z,6.70
2017-11-22T00:54:24.017Z,7.03
2017-11-22T00:56:51.482Z,7.57
2017-11-22T00:59:19.021Z,6.00
2017-11-22T01:01:46.481Z,6.47
2017-11-22T01:04:14.402Z,8.50
2017-11-22T01:06:42.585Z,6.90
2017-11-22T01:09:10.034Z,9.17
2017-11-22T01:11:37.515Z,7.37
2017-11-22T01:14:05.019Z,17.97
2017-11-22T01:16:36.393Z,13.37
2017-11-22T01:19:03.864Z,13.30
2017-11-22T01:21:31.978Z,11.03
2017-11-22T01:23:59.432Z,9.63
2017-11-22T01:26:26.888Z,8.23
2017-11-22T01:28:54.348Z,14.40
2017-11-22T01:31:21.796Z,7.73
2017-11-22T01:33:49.244Z,8.90
2017-11-22T01:36:16.729Z,7.00
2017-11-22T01:38:44.184Z,15.73
2017-11-22T01:41:11.632Z,12.00
2017-11-22T01:43:39.090Z,7.13
2017-11-22T01:46:06.618Z,12.60
2017-11-22T01:48:34.093Z,11.50
2017-11-22T01:51:01.541Z,8.00
2017-11-22T01:53:29.050Z,10.57
2017-11-22T01:55:56.604Z,6.87
2017-11-22T01:58:24.044Z,8.07
2017-11-22T02:00:53.553Z,8.53
2017-11-22T02:03:21.016Z,6.90
2017-11-22T02:05:48.504Z,9.30
2017-11-22T02:08:16.600Z,6.57
2017-11-22T02:10:44.057Z,9.80
2017-11-22T02:13:11.515Z,6.17
2017-11-22T02:15:39.001Z,7.47
2017-11-22T02:18:06.482Z,6.20
2017-11-22T02:20:35.829Z,6.30
2017-11-22T02:23:03.296Z,8.43
2017-11-22T02:25:30.752Z,6.47
2017-11-22T02:27:58.209Z,9.80
2017-11-22T02:30:28.335Z,5.50
2017-11-22T02:32:55.790Z,4.70
2017-11-22T02:35:23.233Z,7.43
2017-11-22T02:37:50.684Z,5.50
2017-11-22T02:40:18.136Z,5.90
2017-11-22T02:42:45.707Z,6.07
2017-11-22T02:45:13.190Z,5.30
2017-11-22T02:47:40.642Z,6.67
2017-11-22T02:50:08.090Z,8.13
2017-11-22T02:52:35.934Z,11.10
2017-11-22T02:55:03.398Z,6.23
2017-11-22T02:57:30.885Z,7.60
2017-11-22T02:59:58.452Z,12.20
2017-11-22T03:02:25.892Z,5.23
2017-11-22T03:04:53.394Z,6.90
2017-11-22T03:07:20.848Z,17.30
2017-11-22T03:09:48.284Z,5.30
2017-11-22T03:12:15.768Z,11.80
2017-11-22T03:14:43.223Z,9.47
2017-11-22T03:17:10.668Z,3.43
2017-11-22T03:19:38.144Z,6.80
2017-11-22T03:22:05.578Z,7.40
2017-11-22T03:24:33.056Z,8.90
2017-11-22T03:27:00.511Z,5.73
2017-11-22T03:29:27.959Z,9.07
2017-11-22T03:31:55.406Z,6.00
2017-11-22T03:34:22.878Z,4.07
2017-11-22T03:36:50.568Z,12.50
2017-11-22T03:39:18.141Z,12.30
2017-11-22T03:41:45.604Z,9.47
2017-11-22T03:44:13.172Z,6.67
2017-11-22T03:46:40.651Z,8.27
2017-11-22T03:49:08.888Z,6.73
2017-11-22T03:51:41.849Z,5.53
2017-11-22T03:54:09.377Z,6.57
2017-11-22T03:56:36.834Z,5.23
2017-11-22T03:59:04.306Z,9.50
2017-11-22T04:01:46.368Z,5.53
2017-11-22T04:04:16.349Z,9.07
2017-11-22T04:06:44.073Z,10.77
2017-11-22T04:09:11.545Z,10.23
2017-11-22T04:11:39.153Z,5.97
2017-11-22T04:14:06.625Z,10.10
2017-11-22T04:16:35.403Z,5.60
2017-11-22T04:19:08.528Z,7.20
2017-11-22T04:21:36.068Z,6.67
2017-11-22T04:24:03.609Z,6.43
2017-11-22T04:26:33.991Z,7.03
2017-11-22T04:29:01.444Z,5.60
2017-11-22T04:31:28.927Z,5.27
2017-11-22T04:33:56.381Z,8.40
2017-11-22T04:36:24.172Z,8.33
2017-11-22T04:38:51.660Z,5.93
2017-11-22T04:41:19.124Z,6.17
2017-11-22T04:43:46.641Z,9.00
2017-11-22T04:46:14.236Z,7.83
2017-11-22T04:48:41.767Z,7.37
2017-11-22T04:51:09.224Z,8.03
2017-11-22T04:53:36.697Z,5.60
2017-11-22T04:56:04.169Z,4.20
2017-11-22T04:58:31.660Z,5.10
2017-11-22T05:00:59.155Z,11.73
2017-11-22T05:03:26.601Z,10.03
2017-11-22T05:05:54.132Z,7.07
2017-11-22T05:08:21.596Z,6.80
2017-11-22T05:10:49.048Z,8.50
2017-11-22T05:13:16.551Z,9.13
2017-11-22T05:15:44.056Z,4.60
2017-11-22T05:18:11.605Z,8.47
2017-11-22T05:20:39.131Z,9.33
2017-11-22T05:23:06.594Z,4.43
2017-11-22T05:25:34.047Z,6.80
2017-11-22T05:28:01.517Z,7.37
2017-11-22T05:30:29.017Z,8.93
2017-11-22T05:32:56.493Z,6.27
2017-11-22T05:35:23.969Z,13.47
2017-11-22T05:37:51.432Z,7.60
2017-11-22T05:40:18.888Z,11.83
2017-11-22T05:42:47.169Z,6.10
2017-11-22T05:45:15.537Z,6.73
2017-11-22T05:47:42.978Z,7.53
2017-11-22T05:50:10.509Z,6.10
2017-11-22T05:52:37.953Z,4.23
2017-11-22T05:55:05.413Z,11.23
2017-11-22T05:57:32.862Z,9.40
2017-11-22T06:00:00.616Z,7.00
2017-11-22T06:02:28.102Z,6.33
2017-11-22T06:04:55.600Z,7.03
2017-11-22T06:07:23.059Z,6.93
2017-11-22T06:09:50.561Z,5.30
2017-11-22T06:12:18.039Z,4.43
2017-11-22T06:14:45.484Z,9.53
2017-11-22T06:17:12.948Z,4.57
2017-11-22T06:19:40.473Z,7.97
2017-11-22T06:22:07.933Z,7.83
2017-11-22T06:24:35.420Z,9.33
2017-11-22T06:27:02.873Z,5.73
2017-11-22T06:29:30.368Z,6.60
2017-11-22T06:31:57.824Z,9.60
2017-11-22T06:34:25.764Z,3.77
2017-11-22T06:36:53.250Z,5.67
2017-11-22T06:39:24.505Z,8.70
2017-11-22T06:41:51.992Z,8.93
2017-11-22T06:44:19.456Z,9.73
2017-11-22T06:46:46.917Z,16.70
2017-11-22T06:49:14.396Z,7.73
2017-11-22T06:51:41.830Z,5.20
2017-11-22T06:54:09.291Z,6.23
2017-11-22T06:56:37.048Z,15.00
2017-11-22T06:59:05.170Z,7.70
2017-11-22T07:01:32.653Z,10.07
2017-11-22T07:04:00.117Z,5.80
2017-11-22T07:06:28.865Z,10.20
2017-11-22T07:08:56.390Z,9.10
2017-11-22T07:11:23.846Z,13.20
2017-11-22T07:13:51.309Z,15.53
2017-11-22T07:16:24.299Z,11.50
2017-11-22T07:18:51.969Z,9.60
2017-11-22T07:21:19.429Z,8.67
2017-11-22T07:23:46.907Z,8.50
2017-11-22T07:26:14.366Z,6.27
2017-11-22T07:28:41.835Z,7.73
2017-11-22T07:31:09.288Z,8.57
2017-11-22T07:33:36.732Z,12.40
2017-11-22T07:36:09.789Z,8.80
2017-11-22T07:38:37.358Z,11.60
2017-11-22T07:41:04.824Z,8.87
2017-11-22T07:43:32.328Z,10.90
2017-11-22T07:45:59.953Z,9.83
2017-11-22T07:48:27.577Z,12.20
2017-11-22T07:50:58.653Z,6.53
2017-11-22T07:53:26.109Z,16.20
2017-11-22T07:55:53.581Z,9.70
2017-11-22T07:58:21.839Z,10.60
2017-11-22T08:00:49.389Z,9.77
2017-11-22T08:03:22.544Z,12.13
2017-11-22T08:05:50.012Z,10.13
2017-11-22T08:08:17.508Z,8.40
2017-11-22T08:10:44.961Z,12.20
2017-11-22T08:13:12.422Z,6.07
2017-11-22T08:15:39.890Z,14.07
2017-11-22T08:18:07.338Z,10.97
2017-11-22T08:20:34.915Z,7.90
2017-11-22T08:23:02.363Z,10.07
2017-11-22T08:25:29.826Z,16.70
2017-11-22T08:27:57.297Z,12.63
2017-11-22T08:30:24.862Z,16.07
2017-11-22T08:32:52.350Z,8.20
2017-11-22T08:35:19.812Z,20.27
2017-11-22T08:37:47.252Z,18.97
2017-11-22T08:40:15.681Z,7.87
2017-11-22T08:42:43.153Z,8.57
2017-11-22T08:45:10.619Z,6.30
2017-11-22T08:47:38.684Z,6.80
2017-11-22T08:50:06.203Z,9.40
2017-11-22T08:52:33.886Z,9.10
2017-11-22T08:55:07.227Z,10.50
2017-11-22T08:57:40.339Z,8.57
2017-11-22T09:00:13.298Z,7.30
2017-11-22T09:02:44.565Z,14.23
2017-11-22T09:05:12.032Z,10.83
2017-11-22T09:07:39.494Z,10.07
2017-11-22T09:10:06.998Z,7.50
2017-11-22T09:12:40.051Z,10.00
2017-11-22T09:15:09.107Z,10.80
2017-11-22T09:17:36.578Z,5.60
2017-11-22T09:20:05.916Z,10.23
2017-11-22T09:22:34.497Z,14.23
2017-11-22T09:25:06.366Z,10.73
2017-11-22T09:27:39.434Z,11.07
2017-11-22T09:30:12.674Z,8.00
2017-11-22T09:32:40.199Z,9.80
2017-11-22T09:35:07.653Z,7.00
2017-11-22T09:37:35.115Z,18.23
2017-11-22T09:40:02.608Z,18.80
2017-11-22T09:42:30.246Z,9.67
2017-11-22T09:44:57.704Z,5.90
2017-11-22T09:47:25.189Z,12.40
2017-11-22T09:49:52.644Z,5.33
2017-11-22T09:52:20.102Z,5.40
2017-11-22T09:54:47.577Z,9.10
2017-11-22T09:57:15.961Z,6.23
2017-11-22T09:59:43.413Z,8.07
2017-11-22T10:02:10.870Z,6.93
2017-11-22T10:04:38.340Z,8.97
2017-11-22T10:07:05.816Z,9.60
2017-11-22T10:09:33.311Z,6.53
2017-11-22T10:12:01.012Z,14.17
2017-11-22T10:14:28.478Z,8.30
2017-11-22T10:17:01.483Z,19.50
2017-11-22T10:19:28.937Z,50.23
2017-11-22T10:22:01.957Z,12.13
2017-11-22T10:24:33.304Z,10.30
2017-11-22T10:27:06.247Z,9.57
2017-11-22T10:29:39.270Z,7.27
2017-11-22T10:32:06.752Z,4.90
2017-11-22T10:34:34.672Z,7.73
2017-11-22T10:37:02.150Z,4.93
2017-11-22T10:39:29.631Z,8.50
2017-11-22T10:41:57.077Z,5.30
2017-11-22T10:44:24.552Z,5.67
2017-11-22T10:46:52.057Z,9.33
2017-11-22T10:49:19.537Z,7.73
2017-11-22T10:51:47.011Z,15.33
2017-11-22T10:54:14.479Z,13.20
2017-11-22T10:56:41.947Z,7.70
2017-11-22T10:59:09.447Z,17.93
2017-11-22T11:01:37.115Z,9.23
2017-11-22T11:04:04.565Z,11.83
2017-11-22T11:06:32.036Z,4.43
2017-11-22T11:08:59.508Z,6.93
2017-11-22T11:11:27.000Z,8.17
2017-11-22T11:13:54.481Z,13.70
2017-11-22T11:16:21.930Z,7.03
2017-11-22T11:18:49.384Z,5.20
2017-11-22T11:21:17.006Z,6.77
2017-11-22T11:23:44.463Z,3.93
2017-11-22T11:26:11.965Z,6.60
2017-11-22T11:28:39.433Z,8.13
2017-11-22T11:31:06.931Z,8.20
2017-11-22T11:33:34.377Z,7.83
2017-11-22T11:39:06.052Z,7.83
2017-11-22T11:41:33.531Z,6.37
2017-11-22T11:44:01.005Z,6.77
2017-11-22T11:46:28.465Z,11.40
2017-11-22T11:48:55.925Z,9.77
2017-11-22T11:51:23.417Z,9.33
2017-11-22T11:53:50.869Z,12.40
2017-11-22T11:56:19.279Z,11.13
2017-11-22T11:58:46.745Z,3.83
2017-11-22T12:01:14.206Z,11.43
2017-11-22T12:03:41.660Z,11.50
2017-11-22T12:06:09.110Z,5.77
2017-11-22T12:08:36.565Z,10.00
2017-11-22T12:11:04.037Z,7.20
2017-11-22T12:13:31.505Z,9.20
2017-11-22T12:15:58.985Z,11.03
2017-11-22T12:18:27.576Z,6.40
2017-11-22T12:21:00.884Z,6.70
2017-11-22T12:23:28.984Z,11.47
2017-11-22T12:25:56.446Z,14.77
2017-11-22T12:28:23.940Z,6.93
2017-11-22T12:30:53.011Z,5.47
2017-11-22T12:33:20.455Z,8.70
2017-11-22T12:35:47.986Z,10.60
2017-11-22T12:38:16.420Z,4.97
2017-11-22T12:40:43.872Z,6.53
2017-11-22T12:43:11.691Z,5.23
2017-11-22T12:45:39.164Z,5.87
2017-11-22T12:48:06.706Z,8.37
2017-11-22T12:50:35.363Z,6.80
2017-11-22T12:53:02.814Z,10.17
2017-11-22T12:55:30.304Z,26.40
2017-11-22T12:58:00.700Z,5.73
2017-11-22T13:00:28.300Z,13.13
2017-11-22T13:02:55.785Z,15.87
2017-11-22T13:05:23.291Z,9.60
2017-11-22T13:07:50.790Z,8.30
2017-11-22T13:10:20.093Z,16.10
2017-11-22T13:12:48.526Z,8.90
2017-11-22T13:15:16.214Z,5.20
2017-11-22T13:17:43.683Z,6.87
2017-11-22T13:20:11.172Z,9.50
2017-11-22T13:22:38.648Z,5.10
2017-11-22T13:25:06.174Z,4.00
2017-11-22T13:27:33.668Z,12.40
2017-11-22T13:30:01.138Z,6.83
2017-11-22T13:32:34.451Z,11.27
2017-11-22T13:35:01.920Z,10.17
2017-11-22T13:37:29.414Z,7.03
2017-11-22T13:39:56.885Z,6.77
2017-11-22T13:42:24.361Z,7.47
2017-11-22T13:44:51.853Z,12.60
2017-11-22T13:47:19.340Z,6.83
2017-11-22T13:49:46.815Z,15.63
2017-11-22T13:52:14.971Z,11.43
2017-11-22T13:54:43.073Z,12.70
2017-11-22T13:57:10.543Z,15.10
2017-11-22T13:59:38.034Z,18.23
2017-11-22T14:02:05.490Z,10.87
2017-11-22T14:04:35.679Z,11.43
2017-11-22T14:07:03.174Z,8.30
2017-11-22T14:09:30.684Z,6.60
2017-11-22T14:11:58.185Z,6.50
2017-11-22T14:14:25.639Z,5.20
2017-11-22T14:16:53.134Z,7.20
2017-11-22T14:19:20.763Z,8.40
2017-11-22T14:21:48.293Z,8.10
2017-11-22T14:24:15.757Z,4.60
2017-11-22T14:26:43.242Z,7.77
2017-11-22T14:29:10.730Z,6.60
2017-11-22T14:31:38.293Z,16.80
2017-11-22T14:34:05.753Z,5.93
2017-11-22T14:36:35.137Z,11.70
2017-11-22T14:39:02.624Z,9.37
2017-11-22T14:41:30.101Z,9.90
2017-11-22T14:43:57.593Z,5.50
2017-11-22T14:46:25.092Z,6.50
2017-11-22T14:48:53.233Z,5.63
2017-11-22T14:51:20.680Z,5.87
2017-11-22T14:53:48.173Z,4.50
2017-11-22T14:56:17.069Z,13.77
2017-11-22T14:58:44.524Z,12.47
2017-11-22T15:01:11.982Z,6.67
2017-11-22T15:03:39.437Z,6.27
2017-11-22T15:06:06.917Z,11.60
2017-11-22T15:08:34.393Z,5.27
2017-11-22T15:11:01.846Z,8.60
2017-11-22T15:13:29.367Z,6.27
2017-11-22T15:15:56.867Z,8.43
2017-11-22T15:18:25.280Z,17.73
2017-11-22T15:20:52.792Z,15.27
2017-11-22T15:23:20.318Z,7.03
2017-11-22T15:25:47.774Z,5.77
2017-11-22T15:28:15.478Z,5.23
2017-11-22T15:30:43.003Z,12.50
2017-11-22T15:33:10.484Z,6.13
2017-11-22T15:35:37.999Z,11.50
2017-11-22T15:38:05.541Z,6.73
2017-11-22T15:40:34.102Z,7.90
2017-11-22T15:43:01.567Z,10.70
2017-11-22T15:45:29.065Z,4.73
2017-11-22T15:47:56.558Z,19.23
2017-11-22T15:50:24.048Z,9.10
2017-11-22T15:52:51.561Z,5.67
2017-11-22T15:55:19.368Z,9.50
2017-11-22T15:57:46.860Z,9.60
2017-11-22T16:00:14.336Z,12.97
2017-11-22T16:02:41.822Z,11.07
2017-11-22T16:05:09.320Z,8.50
2017-11-22T16:07:36.836Z,5.17
2017-11-22T16:10:04.339Z,9.80
2017-11-22T16:12:31.853Z,14.70
2017-11-22T16:14:59.402Z,9.00
2017-11-22T16:17:26.854Z,6.90
2017-11-22T16:19:54.349Z,14.67
2017-11-22T16:22:21.821Z,7.33
2017-11-22T16:24:49.943Z,6.60
2017-11-22T16:27:19.079Z,13.90
2017-11-22T16:29:46.551Z,4.30
2017-11-22T16:32:14.105Z,7.70
2017-11-22T16:34:41.603Z,4.40
2017-11-22T16:37:09.056Z,10.73
2017-11-22T16:39:36.534Z,5.50
2017-11-22T16:42:03.997Z,8.57
2017-11-22T16:44:31.566Z,10.73
2017-11-22T16:46:59.058Z,33.53
2017-11-22T16:49:26.542Z,6.40
2017-11-22T16:51:54.096Z,3.27
2017-11-22T16:54:21.585Z,8.50
2017-11-22T16:56:49.038Z,8.30
2017-11-22T16:59:16.524Z,7.50
2017-11-22T17:01:43.972Z,5.83
2017-11-22T17:04:11.500Z,8.30
2017-11-22T17:06:38.968Z,12.20
2017-11-22T17:09:06.526Z,5.00
2017-11-22T17:14:07.885Z,7.03
2017-11-22T17:16:35.375Z,10.17
2017-11-22T17:19:03.122Z,7.80
2017-11-22T17:21:30.601Z,8.03
2017-11-22T17:23:58.123Z,15.33
2017-11-22T17:26:25.597Z,6.70
2017-11-22T17:28:53.146Z,11.43
2017-11-22T17:31:20.649Z,12.60
2017-11-22T17:33:48.125Z,4.13
2017-11-22T17:36:15.620Z,8.83
2017-11-22T17:38:43.085Z,6.47
2017-11-22T17:41:10.577Z,14.67
2017-11-22T17:43:38.084Z,12.20
2017-11-22T17:46:05.573Z,8.40
2017-11-22T17:48:33.055Z,6.87
2017-11-22T17:51:00.529Z,10.97
2017-11-22T17:53:28.073Z,10.53
2017-11-22T17:55:55.552Z,6.80
2017-11-22T17:58:23.042Z,11.10
2017-11-22T18:00:50.517Z,9.10
2017-11-22T18:03:18.020Z,7.13
2017-11-22T18:05:45.562Z,12.17
2017-11-22T18:08:13.067Z,8.53
2017-11-22T18:10:40.569Z,17.50
2017-11-22T18:13:08.062Z,10.13
2017-11-22T18:15:35.568Z,8.13
2017-11-22T18:18:03.072Z,10.90
2017-11-22T18:20:30.584Z,12.73
2017-11-22T18:22:58.042Z,10.93
2017-11-22T18:25:26.035Z,10.67
2017-11-22T18:27:53.648Z,9.70
2017-11-22T18:32:54.927Z,12.20
2017-11-22T18:35:22.399Z,9.77
2017-11-22T18:37:50.589Z,8.53
2017-11-22T18:40:18.160Z,14.37
2017-11-22T18:42:47.788Z,10.87
2017-11-22T18:45:16.473Z,12.37
2017-11-22T18:47:44.032Z,10.77
2017-11-22T18:50:11.584Z,11.27
2017-11-22T18:52:39.208Z,7.50
2017-11-22T18:55:06.803Z,9.47
2017-11-22T18:57:34.331Z,7.13
2017-11-22T19:00:01.928Z,9.93
2017-11-22T19:02:29.507Z,9.23
2017-11-22T19:04:57.134Z,10.63
2017-11-22T19:07:24.680Z,11.47
2017-11-22T19:09:52.196Z,10.97
2017-11-22T19:12:19.698Z,11.13
2017-11-22T19:14:47.159Z,9.30
2017-11-22T19:17:14.799Z,12.53
2017-11-22T19:19:42.288Z,7.70
2017-11-22T19:22:09.753Z,11.93
2017-11-22T19:24:37.306Z,10.83
2017-11-22T19:27:05.685Z,12.57
2017-11-22T19:29:33.164Z,11.73
2017-11-22T19:32:00.652Z,12.70
2017-11-22T19:34:28.209Z,15.97
2017-11-22T19:36:55.721Z,19.10
2017-11-22T19:39:23.270Z,14.03
2017-11-22T19:41:50.735Z,10.77
2017-11-22T19:44:18.608Z,10.97
2017-11-22T19:46:46.096Z,13.20
2017-11-22T19:49:13.582Z,13.97
2017-11-22T19:51:41.081Z,11.67
2017-11-22T19:54:08.564Z,16.00
2017-11-22T19:56:37.356Z,22.30
2017-11-22T19:59:04.873Z,18.20
2017-11-22T20:01:32.417Z,10.80
2017-11-22T20:03:59.890Z,11.13
2017-11-22T20:06:30.628Z,9.20
2017-11-22T20:09:02.919Z,12.40
2017-11-22T20:11:30.408Z,13.17
2017-11-22T20:13:57.909Z,16.93
2017-11-22T20:16:25.394Z,10.37
2017-11-22T20:18:52.920Z,11.53
2017-11-22T20:21:20.406Z,11.20
2017-11-22T20:23:47.888Z,12.90
2017-11-22T20:26:16.233Z,14.47
2017-11-22T20:28:44.037Z,14.17
2017-11-22T20:31:11.512Z,12.13
2017-11-22T20:33:38.988Z,11.30
2017-11-22T20:36:06.489Z,15.60
2017-11-22T20:38:36.110Z,19.70
2017-11-22T20:41:03.597Z,16.37
2017-11-22T20:43:31.126Z,17.97
2017-11-22T20:45:58.685Z,19.20
2017-11-22T20:48:28.829Z,19.30
2017-11-22T20:50:56.320Z,19.77
2017-11-22T20:53:23.918Z,20.33
2017-11-22T20:55:51.626Z,15.13
2017-11-22T20:58:19.258Z,25.40
2017-11-22T21:00:46.761Z,16.63
2017-11-22T21:03:18.376Z,24.07
2017-11-22T21:05:45.841Z,23.50
2017-11-22T21:08:13.335Z,20.23
2017-11-22T21:10:40.825Z,17.40
2017-11-22T21:13:08.337Z,26.23
2017-11-22T21:15:35.821Z,35.33
2017-11-22T21:18:03.394Z,31.93
2017-11-22T21:20:30.875Z,28.70
2017-11-22T21:22:58.391Z,18.13
2017-11-22T21:25:25.889Z,24.53
2017-11-22T21:27:53.345Z,24.93
2017-11-22T21:30:20.879Z,17.90
2017-11-22T21:32:48.421Z,19.77
2017-11-22T21:35:15.877Z,19.80
2017-11-22T21:37:43.445Z,23.37
2017-11-22T21:40:10.898Z,27.73
2017-11-22T21:42:38.368Z,19.43
2017-11-22T21:45:06.272Z,22.67
2017-11-22T21:47:33.726Z,23.03
2017-11-22T21:50:01.204Z,24.10
2017-11-22T21:52:28.696Z,23.07
2017-11-22T21:54:56.179Z,21.47
2017-11-22T21:57:26.605Z,24.17
2017-11-22T21:59:54.102Z,15.20
2017-11-22T22:02:21.583Z,19.53
2017-11-22T22:04:49.079Z,18.47
2017-11-22T22:07:16.566Z,18.40
2017-11-22T22:09:44.044Z,18.87
2017-11-22T22:12:11.535Z,28.00
2017-11-22T22:14:40.033Z,16.37
2017-11-22T22:17:13.135Z,21.17
2017-11-22T22:19:40.597Z,39.70
2017-11-22T22:22:08.044Z,27.57
2017-11-22T22:24:35.508Z,25.80
2017-11-22T22:27:02.965Z,30.03
2017-11-22T22:29:30.448Z,21.90
2017-11-22T22:31:57.895Z,25.90
2017-11-22T22:34:25.360Z,27.90
2017-11-22T22:36:52.842Z,33.50
2017-11-22T22:39:20.317Z,21.33
2017-11-22T22:41:47.820Z,21.63
2017-11-22T22:44:17.161Z,25.37
2017-11-22T22:46:44.939Z,27.53
2017-11-22T22:49:12.487Z,28.17
2017-11-22T22:51:40.015Z,24.10
2017-11-22T22:54:07.535Z,23.67
2017-11-22T22:56:36.979Z,25.40
2017-11-22T22:59:04.584Z,29.80
2017-11-22T23:01:32.079Z,28.87
2017-11-22T23:03:59.560Z,25.03
2017-11-22T23:06:27.327Z,32.23
2017-11-22T23:08:54.827Z,27.40
2017-11-22T23:11:22.296Z,24.43
2017-11-22T23:13:49.774Z,34.03
2017-11-22T23:16:18.347Z,30.07
2017-11-22T23:18:45.990Z,31.40
2017-11-22T23:21:13.456Z,33.10
2017-11-22T23:23:40.926Z,23.00
2017-11-22T23:26:08.448Z,26.97
2017-11-22T23:28:36.829Z,27.40
2017-11-22T23:31:05.099Z,30.57
2017-11-22T23:33:32.560Z,28.60
2017-11-22T23:36:00.055Z,21.97
2017-11-22T23:38:27.529Z,27.23
2017-11-22T23:40:55.032Z,27.53
2017-11-22T23:43:22.521Z,23.80
2017-11-22T23:45:49.992Z,27.60
2017-11-22T23:48:17.756Z,26.47
2017-11-22T23:50:45.329Z,21.40
2017-11-22T23:53:12.798Z,29.50
2017-11-22T23:55:40.254Z,26.43
2017-11-22T23:58:07.762Z,24.70
